GIS weather

Gisborne Airport
Gisborne, Gisborne Region, New Zealand

Public forecast

Using degrees Celsius for public forecast. Weather courtesy of forecast.io.

METAR (pilot weather report)

Report is more than 6 hours old.

Closest report is RNZAF Base Ohakea, 151.7 nm (280.9 km) SW. Retrieved 2019/05/27 11:00 UTC (19 days ago):

NZOH 271100Z 33002KT 15KM BCFG FEW040 12/12 Q1013 NOSIG

TAF (pilot weather forecast)

Closest forecast is Auckland International Airport, 180.8 nm (334.9 km) WNW. Retrieved 2019/06/15 18:06 UTC (5 hours ago):

TAF NZAA 151703Z 1518/1618 24012KT 9999 -SHRA FEW020 SCT025 BECMG 1522/1600 26015G25KT TEMPO 1602/1618 7000 SHRA BECMG 1606/1608 24012KT